sensor_id;sensor_type;location;lat;lon;timestamp;P1;durP1;ratioP1;P2;durP2;ratioP2
7807;SDS011;3949;49.254;8.894;2023-03-01T00:02:03;12.27;;;8.80;;
7807;SDS011;3949;49.254;8.894;2023-03-01T00:04:30;10.03;;;8.37;;
7807;SDS011;3949;49.254;8.894;2023-03-01T00:06:56;11.77;;;8.80;;
7807;SDS011;3949;49.254;8.894;2023-03-01T00:09:22;10.53;;;8.77;;
7807;SDS011;3949;49.254;8.894;2023-03-01T00:11:48;11.47;;;9.33;;
7807;SDS011;3949;49.254;8.894;2023-03-01T00:14:14;12.37;;;9.47;;
7807;SDS011;3949;49.254;8.894;2023-03-01T00:16:42;14.27;;;9.53;;
7807;SDS011;3949;49.254;8.894;2023-03-01T00:19:09;11.77;;;9.27;;
7807;SDS011;3949;49.254;8.894;2023-03-01T00:21:36;12.07;;;9.30;;
7807;SDS011;3949;49.254;8.894;2023-03-01T00:24:03;12.80;;;8.77;;
7807;SDS011;3949;49.254;8.894;2023-03-01T00:26:29;13.53;;;9.10;;
7807;SDS011;3949;49.254;8.894;2023-03-01T00:28:56;12.03;;;9.00;;
7807;SDS011;3949;49.254;8.894;2023-03-01T00:31:23;12.43;;;8.87;;
7807;SDS011;3949;49.254;8.894;2023-03-01T00:33:51;11.73;;;9.93;;
7807;SDS011;3949;49.254;8.894;2023-03-01T00:36:18;13.97;;;9.57;;
7807;SDS011;3949;49.254;8.894;2023-03-01T00:38:45;12.43;;;9.57;;
7807;SDS011;3949;49.254;8.894;2023-03-01T00:41:13;12.33;;;9.87;;
7807;SDS011;3949;49.254;8.894;2023-03-01T00:43:39;10.47;;;8.60;;
7807;SDS011;3949;49.254;8.894;2023-03-01T00:46:10;11.80;;;9.27;;
7807;SDS011;3949;49.254;8.894;2023-03-01T00:48:36;13.03;;;9.57;;
7807;SDS011;3949;49.254;8.894;2023-03-01T00:51:10;12.03;;;9.60;;
7807;SDS011;3949;49.254;8.894;2023-03-01T00:53:36;13.10;;;9.13;;
7807;SDS011;3949;49.254;8.894;2023-03-01T00:56:03;12.27;;;9.07;;
7807;SDS011;3949;49.254;8.894;2023-03-01T00:58:29;12.40;;;9.63;;
7807;SDS011;3949;49.254;8.894;2023-03-01T01:00:56;12.27;;;9.77;;
7807;SDS011;3949;49.254;8.894;2023-03-01T01:03:22;13.60;;;9.70;;
7807;SDS011;3949;49.254;8.894;2023-03-01T01:05:49;12.00;;;9.90;;
7807;SDS011;3949;49.254;8.894;2023-03-01T01:08:15;12.87;;;10.63;;
7807;SDS011;3949;49.254;8.894;2023-03-01T01:10:43;13.43;;;9.70;;
7807;SDS011;3949;49.254;8.894;2023-03-01T01:13:09;11.57;;;9.47;;
7807;SDS011;3949;49.254;8.894;2023-03-01T01:15:35;12.70;;;9.87;;
7807;SDS011;3949;49.254;8.894;2023-03-01T01:18:01;14.60;;;10.33;;
7807;SDS011;3949;49.254;8.894;2023-03-01T01:20:27;12.10;;;9.83;;
7807;SDS011;3949;49.254;8.894;2023-03-01T01:22:53;13.13;;;10.20;;
7807;SDS011;3949;49.254;8.894;2023-03-01T01:25:19;13.97;;;10.27;;
7807;SDS011;3949;49.254;8.894;2023-03-01T01:27:45;13.43;;;10.47;;
7807;SDS011;3949;49.254;8.894;2023-03-01T01:30:11;12.60;;;10.10;;
7807;SDS011;3949;49.254;8.894;2023-03-01T01:32:38;14.73;;;11.07;;
7807;SDS011;3949;49.254;8.894;2023-03-01T01:35:04;13.67;;;10.70;;
7807;SDS011;3949;49.254;8.894;2023-03-01T01:37:30;13.97;;;10.40;;
7807;SDS011;3949;49.254;8.894;2023-03-01T01:39:59;13.30;;;10.13;;
7807;SDS011;3949;49.254;8.894;2023-03-01T01:42:25;16.63;;;10.77;;
7807;SDS011;3949;49.254;8.894;2023-03-01T01:47:36;13.33;;;10.77;;
7807;SDS011;3949;49.254;8.894;2023-03-01T01:50:02;14.00;;;10.03;;
7807;SDS011;3949;49.254;8.894;2023-03-01T01:52:31;12.77;;;10.20;;
7807;SDS011;3949;49.254;8.894;2023-03-01T01:55:02;13.53;;;10.17;;
7807;SDS011;3949;49.254;8.894;2023-03-01T01:57:40;13.17;;;10.60;;
7807;SDS011;3949;49.254;8.894;2023-03-01T02:00:09;13.70;;;10.17;;
7807;SDS011;3949;49.254;8.894;2023-03-01T02:02:36;14.40;;;10.43;;
7807;SDS011;3949;49.254;8.894;2023-03-01T02:05:09;12.57;;;11.10;;
7807;SDS011;3949;49.254;8.894;2023-03-01T02:07:37;14.67;;;10.30;;
7807;SDS011;3949;49.254;8.894;2023-03-01T02:10:04;14.40;;;10.40;;
7807;SDS011;3949;49.254;8.894;2023-03-01T02:12:30;14.57;;;11.17;;
7807;SDS011;3949;49.254;8.894;2023-03-01T02:14:56;12.47;;;10.70;;
7807;SDS011;3949;49.254;8.894;2023-03-01T02:17:22;15.00;;;10.23;;
7807;SDS011;3949;49.254;8.894;2023-03-01T02:22:18;14.57;;;11.40;;
7807;SDS011;3949;49.254;8.894;2023-03-01T02:27:15;13.60;;;10.00;;
7807;SDS011;3949;49.254;8.894;2023-03-01T02:29:41;14.50;;;11.30;;
7807;SDS011;3949;49.254;8.894;2023-03-01T02:32:09;16.10;;;11.20;;
7807;SDS011;3949;49.254;8.894;2023-03-01T02:34:36;16.27;;;11.80;;
7807;SDS011;3949;49.254;8.894;2023-03-01T02:37:05;13.90;;;10.23;;
7807;SDS011;3949;49.254;8.894;2023-03-01T02:39:42;14.23;;;10.80;;
7807;SDS011;3949;49.254;8.894;2023-03-01T02:42:11;14.70;;;10.53;;
7807;SDS011;3949;49.254;8.894;2023-03-01T02:44:37;14.70;;;11.37;;
7807;SDS011;3949;49.254;8.894;2023-03-01T02:47:04;14.83;;;10.50;;
7807;SDS011;3949;49.254;8.894;2023-03-01T02:49:32;16.13;;;11.43;;
7807;SDS011;3949;49.254;8.894;2023-03-01T02:52:13;14.17;;;10.80;;
7807;SDS011;3949;49.254;8.894;2023-03-01T02:55:28;15.33;;;11.67;;
7807;SDS011;3949;49.254;8.894;2023-03-01T02:57:29;14.23;;;11.43;;
7807;SDS011;3949;49.254;8.894;2023-03-01T02:59:57;14.83;;;11.53;;
7807;SDS011;3949;49.254;8.894;2023-03-01T03:02:27;12.70;;;10.60;;
7807;SDS011;3949;49.254;8.894;2023-03-01T03:05:07;15.73;;;11.90;;
7807;SDS011;3949;49.254;8.894;2023-03-01T03:07:34;14.40;;;10.93;;
7807;SDS011;3949;49.254;8.894;2023-03-01T03:10:01;14.83;;;11.57;;
7807;SDS011;3949;49.254;8.894;2023-03-01T03:12:27;15.97;;;11.83;;
7807;SDS011;3949;49.254;8.894;2023-03-01T03:14:53;14.30;;;10.80;;
7807;SDS011;3949;49.254;8.894;2023-03-01T03:17:19;14.30;;;11.30;;
7807;SDS011;3949;49.254;8.894;2023-03-01T03:19:45;13.07;;;10.53;;
7807;SDS011;3949;49.254;8.894;2023-03-01T03:22:11;14.87;;;11.47;;
7807;SDS011;3949;49.254;8.894;2023-03-01T03:24:37;15.37;;;11.33;;
7807;SDS011;3949;49.254;8.894;2023-03-01T03:27:04;16.00;;;12.20;;
7807;SDS011;3949;49.254;8.894;2023-03-01T03:29:30;15.73;;;11.73;;
7807;SDS011;3949;49.254;8.894;2023-03-01T03:31:57;16.63;;;12.10;;
7807;SDS011;3949;49.254;8.894;2023-03-01T03:34:23;15.57;;;11.20;;
7807;SDS011;3949;49.254;8.894;2023-03-01T03:36:52;16.63;;;12.07;;
7807;SDS011;3949;49.254;8.894;2023-03-01T03:39:21;16.10;;;11.90;;
7807;SDS011;3949;49.254;8.894;2023-03-01T03:41:47;16.40;;;11.77;;
7807;SDS011;3949;49.254;8.894;2023-03-01T03:44:13;17.43;;;13.03;;
7807;SDS011;3949;49.254;8.894;2023-03-01T03:46:39;19.80;;;12.50;;
7807;SDS011;3949;49.254;8.894;2023-03-01T03:49:05;15.50;;;11.10;;
7807;SDS011;3949;49.254;8.894;2023-03-01T03:51:31;15.87;;;11.23;;
7807;SDS011;3949;49.254;8.894;2023-03-01T03:53:57;15.50;;;11.67;;
7807;SDS011;3949;49.254;8.894;2023-03-01T03:56:23;14.80;;;11.17;;
7807;SDS011;3949;49.254;8.894;2023-03-01T03:58:50;14.97;;;10.67;;
7807;SDS011;3949;49.254;8.894;2023-03-01T04:01:16;16.23;;;11.10;;
7807;SDS011;3949;49.254;8.894;2023-03-01T04:03:42;16.20;;;11.67;;
7807;SDS011;3949;49.254;8.894;2023-03-01T04:06:12;16.80;;;11.33;;
7807;SDS011;3949;49.254;8.894;2023-03-01T04:08:38;16.07;;;11.67;;
7807;SDS011;3949;49.254;8.894;2023-03-01T04:11:04;16.50;;;11.53;;
7807;SDS011;3949;49.254;8.894;2023-03-01T04:13:49;15.60;;;11.03;;
7807;SDS011;3949;49.254;8.894;2023-03-01T04:16:16;16.93;;;11.33;;
7807;SDS011;3949;49.254;8.894;2023-03-01T04:18:42;15.57;;;11.73;;
7807;SDS011;3949;49.254;8.894;2023-03-01T04:21:08;15.00;;;11.80;;
7807;SDS011;3949;49.254;8.894;2023-03-01T04:23:36;13.80;;;11.13;;
7807;SDS011;3949;49.254;8.894;2023-03-01T04:26:02;16.70;;;12.13;;
7807;SDS011;3949;49.254;8.894;2023-03-01T04:28:32;17.23;;;12.40;;
7807;SDS011;3949;49.254;8.894;2023-03-01T04:31:01;14.77;;;11.27;;
7807;SDS011;3949;49.254;8.894;2023-03-01T04:33:37;15.40;;;11.67;;
7807;SDS011;3949;49.254;8.894;2023-03-01T04:36:03;14.83;;;11.50;;
7807;SDS011;3949;49.254;8.894;2023-03-01T04:38:30;16.10;;;12.27;;
7807;SDS011;3949;49.254;8.894;2023-03-01T04:40:56;16.83;;;12.13;;
7807;SDS011;3949;49.254;8.894;2023-03-01T04:43:22;17.50;;;12.30;;
7807;SDS011;3949;49.254;8.894;2023-03-01T04:45:48;20.20;;;12.70;;
7807;SDS011;3949;49.254;8.894;2023-03-01T04:48:14;16.37;;;12.03;;
7807;SDS011;3949;49.254;8.894;2023-03-01T04:50:40;18.27;;;12.60;;
7807;SDS011;3949;49.254;8.894;2023-03-01T04:53:06;17.93;;;12.33;;
7807;SDS011;3949;49.254;8.894;2023-03-01T04:55:32;16.90;;;12.50;;
7807;SDS011;3949;49.254;8.894;2023-03-01T04:57:59;14.93;;;11.60;;
7807;SDS011;3949;49.254;8.894;2023-03-01T05:00:25;15.43;;;11.93;;
7807;SDS011;3949;49.254;8.894;2023-03-01T05:02:59;16.63;;;12.13;;
7807;SDS011;3949;49.254;8.894;2023-03-01T05:05:32;15.23;;;11.73;;
7807;SDS011;3949;49.254;8.894;2023-03-01T05:07:59;18.73;;;11.40;;
7807;SDS011;3949;49.254;8.894;2023-03-01T05:10:26;17.27;;;11.93;;
7807;SDS011;3949;49.254;8.894;2023-03-01T05:12:54;15.23;;;11.77;;
7807;SDS011;3949;49.254;8.894;2023-03-01T05:15:20;17.70;;;12.30;;
7807;SDS011;3949;49.254;8.894;2023-03-01T05:17:47;14.97;;;11.87;;
7807;SDS011;3949;49.254;8.894;2023-03-01T05:20:13;16.00;;;11.77;;
7807;SDS011;3949;49.254;8.894;2023-03-01T05:22:39;17.43;;;11.90;;
7807;SDS011;3949;49.254;8.894;2023-03-01T05:25:05;16.00;;;11.97;;
7807;SDS011;3949;49.254;8.894;2023-03-01T05:27:32;18.93;;;12.17;;
7807;SDS011;3949;49.254;8.894;2023-03-01T05:29:58;16.03;;;12.17;;
7807;SDS011;3949;49.254;8.894;2023-03-01T05:32:24;17.87;;;12.57;;
7807;SDS011;3949;49.254;8.894;2023-03-01T05:34:50;16.43;;;12.50;;
7807;SDS011;3949;49.254;8.894;2023-03-01T05:37:17;16.30;;;12.83;;
7807;SDS011;3949;49.254;8.894;2023-03-01T05:39:44;16.67;;;12.00;;
7807;SDS011;3949;49.254;8.894;2023-03-01T05:42:10;17.97;;;12.70;;
7807;SDS011;3949;49.254;8.894;2023-03-01T05:44:37;17.43;;;12.80;;
7807;SDS011;3949;49.254;8.894;2023-03-01T05:47:03;14.27;;;11.57;;
7807;SDS011;3949;49.254;8.894;2023-03-01T05:49:29;17.53;;;12.40;;
7807;SDS011;3949;49.254;8.894;2023-03-01T05:51:55;16.93;;;12.90;;
7807;SDS011;3949;49.254;8.894;2023-03-01T05:54:21;16.43;;;12.70;;
7807;SDS011;3949;49.254;8.894;2023-03-01T05:56:47;18.87;;;12.93;;
7807;SDS011;3949;49.254;8.894;2023-03-01T05:59:13;16.07;;;12.27;;
7807;SDS011;3949;49.254;8.894;2023-03-01T06:01:41;17.90;;;12.57;;
7807;SDS011;3949;49.254;8.894;2023-03-01T06:04:07;17.30;;;12.70;;
7807;SDS011;3949;49.254;8.894;2023-03-01T06:06:34;17.97;;;12.27;;
7807;SDS011;3949;49.254;8.894;2023-03-01T06:09:02;19.20;;;12.53;;
7807;SDS011;3949;49.254;8.894;2023-03-01T06:11:28;17.27;;;12.03;;
7807;SDS011;3949;49.254;8.894;2023-03-01T06:13:54;17.60;;;13.30;;
7807;SDS011;3949;49.254;8.894;2023-03-01T06:16:20;15.67;;;12.97;;
7807;SDS011;3949;49.254;8.894;2023-03-01T06:18:46;19.03;;;13.50;;
7807;SDS011;3949;49.254;8.894;2023-03-01T06:21:12;20.03;;;13.67;;
7807;SDS011;3949;49.254;8.894;2023-03-01T06:23:38;18.60;;;13.77;;
7807;SDS011;3949;49.254;8.894;2023-03-01T06:26:05;17.33;;;12.07;;
7807;SDS011;3949;49.254;8.894;2023-03-01T06:28:31;18.50;;;13.70;;
7807;SDS011;3949;49.254;8.894;2023-03-01T06:30:57;21.13;;;15.30;;
7807;SDS011;3949;49.254;8.894;2023-03-01T06:33:23;18.67;;;13.20;;
7807;SDS011;3949;49.254;8.894;2023-03-01T06:35:49;15.67;;;12.10;;
7807;SDS011;3949;49.254;8.894;2023-03-01T06:38:15;19.63;;;12.83;;
7807;SDS011;3949;49.254;8.894;2023-03-01T06:40:43;18.93;;;13.40;;
7807;SDS011;3949;49.254;8.894;2023-03-01T06:43:09;17.00;;;12.50;;
7807;SDS011;3949;49.254;8.894;2023-03-01T06:45:36;19.07;;;12.97;;
7807;SDS011;3949;49.254;8.894;2023-03-01T06:48:03;16.77;;;12.33;;
7807;SDS011;3949;49.254;8.894;2023-03-01T06:50:29;16.23;;;12.30;;
7807;SDS011;3949;49.254;8.894;2023-03-01T06:52:55;17.13;;;12.70;;
7807;SDS011;3949;49.254;8.894;2023-03-01T06:55:21;17.20;;;12.00;;
7807;SDS011;3949;49.254;8.894;2023-03-01T06:57:47;17.73;;;12.90;;
7807;SDS011;3949;49.254;8.894;2023-03-01T07:00:13;18.23;;;13.27;;
7807;SDS011;3949;49.254;8.894;2023-03-01T07:02:39;16.90;;;12.23;;
7807;SDS011;3949;49.254;8.894;2023-03-01T07:05:06;16.63;;;11.77;;
7807;SDS011;3949;49.254;8.894;2023-03-01T07:07:32;17.60;;;12.57;;
7807;SDS011;3949;49.254;8.894;2023-03-01T07:09:57;16.80;;;12.67;;
7807;SDS011;3949;49.254;8.894;2023-03-01T07:12:23;15.73;;;12.20;;
7807;SDS011;3949;49.254;8.894;2023-03-01T07:14:49;15.87;;;12.20;;
7807;SDS011;3949;49.254;8.894;2023-03-01T07:17:15;17.93;;;12.00;;
7807;SDS011;3949;49.254;8.894;2023-03-01T07:19:41;17.43;;;12.17;;
7807;SDS011;3949;49.254;8.894;2023-03-01T07:22:07;17.10;;;12.60;;
7807;SDS011;3949;49.254;8.894;2023-03-01T07:24:34;15.50;;;12.10;;
7807;SDS011;3949;49.254;8.894;2023-03-01T07:27:00;14.80;;;11.60;;
7807;SDS011;3949;49.254;8.894;2023-03-01T07:29:26;17.17;;;12.10;;
7807;SDS011;3949;49.254;8.894;2023-03-01T07:31:53;16.97;;;11.97;;
7807;SDS011;3949;49.254;8.894;2023-03-01T07:34:19;17.10;;;13.37;;
7807;SDS011;3949;49.254;8.894;2023-03-01T07:36:45;18.37;;;13.57;;
7807;SDS011;3949;49.254;8.894;2023-03-01T07:39:12;17.27;;;12.37;;
7807;SDS011;3949;49.254;8.894;2023-03-01T07:41:38;16.70;;;12.60;;
7807;SDS011;3949;49.254;8.894;2023-03-01T07:44:04;16.17;;;12.37;;
7807;SDS011;3949;49.254;8.894;2023-03-01T07:46:30;13.93;;;11.30;;
7807;SDS011;3949;49.254;8.894;2023-03-01T07:48:56;16.93;;;12.90;;
7807;SDS011;3949;49.254;8.894;2023-03-01T07:51:23;14.43;;;11.67;;
7807;SDS011;3949;49.254;8.894;2023-03-01T07:53:49;18.07;;;12.50;;
7807;SDS011;3949;49.254;8.894;2023-03-01T07:56:15;16.37;;;12.50;;
7807;SDS011;3949;49.254;8.894;2023-03-01T07:58:43;13.77;;;11.37;;
7807;SDS011;3949;49.254;8.894;2023-03-01T08:01:10;17.43;;;12.77;;
7807;SDS011;3949;49.254;8.894;2023-03-01T08:03:37;16.47;;;12.47;;
7807;SDS011;3949;49.254;8.894;2023-03-01T08:06:04;17.37;;;12.30;;
7807;SDS011;3949;49.254;8.894;2023-03-01T08:08:30;15.90;;;12.10;;
7807;SDS011;3949;49.254;8.894;2023-03-01T08:10:57;17.43;;;13.07;;
7807;SDS011;3949;49.254;8.894;2023-03-01T08:13:23;16.13;;;11.97;;
7807;SDS011;3949;49.254;8.894;2023-03-01T08:15:49;15.20;;;12.27;;
7807;SDS011;3949;49.254;8.894;2023-03-01T08:18:16;16.97;;;13.33;;
7807;SDS011;3949;49.254;8.894;2023-03-01T08:20:42;16.47;;;12.70;;
7807;SDS011;3949;49.254;8.894;2023-03-01T08:23:08;19.13;;;12.87;;
7807;SDS011;3949;49.254;8.894;2023-03-01T08:25:34;15.60;;;13.00;;
7807;SDS011;3949;49.254;8.894;2023-03-01T08:28:00;15.77;;;12.30;;
7807;SDS011;3949;49.254;8.894;2023-03-01T08:30:26;16.87;;;12.50;;
7807;SDS011;3949;49.254;8.894;2023-03-01T08:32:52;15.90;;;12.50;;
7807;SDS011;3949;49.254;8.894;2023-03-01T08:35:19;17.47;;;13.23;;
7807;SDS011;3949;49.254;8.894;2023-03-01T08:37:45;15.77;;;12.17;;
7807;SDS011;3949;49.254;8.894;2023-03-01T08:40:11;16.33;;;11.70;;
7807;SDS011;3949;49.254;8.894;2023-03-01T08:42:38;14.83;;;12.07;;
7807;SDS011;3949;49.254;8.894;2023-03-01T08:45:04;16.93;;;12.87;;
7807;SDS011;3949;49.254;8.894;2023-03-01T08:47:31;15.27;;;12.70;;
7807;SDS011;3949;49.254;8.894;2023-03-01T08:49:58;16.77;;;13.10;;
7807;SDS011;3949;49.254;8.894;2023-03-01T08:52:24;16.00;;;12.57;;
7807;SDS011;3949;49.254;8.894;2023-03-01T08:54:50;15.30;;;12.33;;
7807;SDS011;3949;49.254;8.894;2023-03-01T08:57:16;15.67;;;11.97;;
7807;SDS011;3949;49.254;8.894;2023-03-01T08:59:42;15.93;;;12.67;;
7807;SDS011;3949;49.254;8.894;2023-03-01T09:02:10;16.17;;;12.70;;
7807;SDS011;3949;49.254;8.894;2023-03-01T09:04:37;14.70;;;12.53;;
7807;SDS011;3949;49.254;8.894;2023-03-01T09:07:03;15.93;;;12.43;;
7807;SDS011;3949;49.254;8.894;2023-03-01T09:09:29;15.87;;;12.87;;
7807;SDS011;3949;49.254;8.894;2023-03-01T09:11:55;17.00;;;13.73;;
7807;SDS011;3949;49.254;8.894;2023-03-01T09:14:21;17.53;;;12.93;;
7807;SDS011;3949;49.254;8.894;2023-03-01T09:16:47;16.43;;;13.27;;
7807;SDS011;3949;49.254;8.894;2023-03-01T09:19:13;14.80;;;12.53;;
7807;SDS011;3949;49.254;8.894;2023-03-01T09:21:39;17.50;;;13.30;;
7807;SDS011;3949;49.254;8.894;2023-03-01T09:24:07;16.07;;;12.63;;
7807;SDS011;3949;49.254;8.894;2023-03-01T09:26:37;17.03;;;13.50;;
7807;SDS011;3949;49.254;8.894;2023-03-01T09:29:03;17.20;;;14.03;;
7807;SDS011;3949;49.254;8.894;2023-03-01T09:31:29;15.00;;;12.57;;
7807;SDS011;3949;49.254;8.894;2023-03-01T09:33:55;15.73;;;12.77;;
7807;SDS011;3949;49.254;8.894;2023-03-01T09:36:22;16.50;;;12.97;;
7807;SDS011;3949;49.254;8.894;2023-03-01T09:38:52;17.07;;;13.03;;
7807;SDS011;3949;49.254;8.894;2023-03-01T09:41:28;15.97;;;13.10;;
7807;SDS011;3949;49.254;8.894;2023-03-01T09:44:00;17.73;;;13.47;;
7807;SDS011;3949;49.254;8.894;2023-03-01T09:46:28;18.23;;;13.57;;
7807;SDS011;3949;49.254;8.894;2023-03-01T09:48:56;16.30;;;13.17;;
7807;SDS011;3949;49.254;8.894;2023-03-01T09:51:27;15.83;;;12.67;;
7807;SDS011;3949;49.254;8.894;2023-03-01T09:53:58;17.87;;;12.87;;
7807;SDS011;3949;49.254;8.894;2023-03-01T09:56:43;14.90;;;12.30;;
7807;SDS011;3949;49.254;8.894;2023-03-01T10:05:00;14.77;;;12.03;;
7807;SDS011;3949;49.254;8.894;2023-03-01T10:07:52;14.87;;;12.70;;
7807;SDS011;3949;49.254;8.894;2023-03-01T10:10:27;14.60;;;12.13;;
7807;SDS011;3949;49.254;8.894;2023-03-01T10:12:54;14.57;;;13.03;;
7807;SDS011;3949;49.254;8.894;2023-03-01T10:15:33;13.93;;;12.40;;
7807;SDS011;3949;49.254;8.894;2023-03-01T10:18:03;13.37;;;12.07;;
7807;SDS011;3949;49.254;8.894;2023-03-01T10:20:42;14.50;;;12.93;;
7807;SDS011;3949;49.254;8.894;2023-03-01T10:23:10;12.97;;;11.67;;
7807;SDS011;3949;49.254;8.894;2023-03-01T10:28:05;14.37;;;12.97;;
7807;SDS011;3949;49.254;8.894;2023-03-01T10:30:35;12.53;;;11.30;;
7807;SDS011;3949;49.254;8.894;2023-03-01T10:33:04;13.97;;;12.60;;
7807;SDS011;3949;49.254;8.894;2023-03-01T10:35:34;13.80;;;12.60;;
7807;SDS011;3949;49.254;8.894;2023-03-01T10:38:08;12.73;;;11.53;;
7807;SDS011;3949;49.254;8.894;2023-03-01T10:40:35;12.87;;;11.70;;
7807;SDS011;3949;49.254;8.894;2023-03-01T10:43:02;13.50;;;12.20;;
7807;SDS011;3949;49.254;8.894;2023-03-01T10:48:11;13.50;;;12.13;;
7807;SDS011;3949;49.254;8.894;2023-03-01T10:50:38;14.43;;;13.13;;
7807;SDS011;3949;49.254;8.894;2023-03-01T10:53:10;12.60;;;11.40;;
7807;SDS011;3949;49.254;8.894;2023-03-01T10:55:42;12.83;;;11.63;;
7807;SDS011;3949;49.254;8.894;2023-03-01T11:00:50;13.60;;;12.30;;
7807;SDS011;3949;49.254;8.894;2023-03-01T11:03:19;15.33;;;12.87;;
7807;SDS011;3949;49.254;8.894;2023-03-01T11:05:51;13.87;;;12.57;;
7807;SDS011;3949;49.254;8.894;2023-03-01T11:08:29;13.40;;;12.13;;
7807;SDS011;3949;49.254;8.894;2023-03-01T11:11:05;13.23;;;11.93;;
7807;SDS011;3949;49.254;8.894;2023-03-01T11:13:32;13.83;;;12.50;;
7807;SDS011;3949;49.254;8.894;2023-03-01T11:16:01;12.73;;;11.53;;
7807;SDS011;3949;49.254;8.894;2023-03-01T11:18:29;13.30;;;12.10;;
7807;SDS011;3949;49.254;8.894;2023-03-01T11:20:55;13.87;;;12.57;;
7807;SDS011;3949;49.254;8.894;2023-03-01T11:23:22;14.23;;;12.93;;
7807;SDS011;3949;49.254;8.894;2023-03-01T11:25:52;15.80;;;14.40;;
7807;SDS011;3949;49.254;8.894;2023-03-01T11:28:20;14.33;;;13.03;;
7807;SDS011;3949;49.254;8.894;2023-03-01T11:36:01;15.70;;;13.97;;
7807;SDS011;3949;49.254;8.894;2023-03-01T11:38:29;14.80;;;13.40;;
7807;SDS011;3949;49.254;8.894;2023-03-01T11:41:11;15.37;;;13.97;;
7807;SDS011;3949;49.254;8.894;2023-03-01T11:43:48;16.27;;;14.67;;
7807;SDS011;3949;49.254;8.894;2023-03-01T11:51:52;20.03;;;17.87;;
7807;SDS011;3949;49.254;8.894;2023-03-01T11:59:53;16.17;;;14.57;;
7807;SDS011;3949;49.254;8.894;2023-03-01T12:07:36;15.63;;;14.13;;
7807;SDS011;3949;49.254;8.894;2023-03-01T12:18:08;16.43;;;14.73;;
7807;SDS011;3949;49.254;8.894;2023-03-01T12:23:48;15.90;;;14.20;;
7807;SDS011;3949;49.254;8.894;2023-03-01T12:29:01;15.27;;;13.77;;
7807;SDS011;3949;49.254;8.894;2023-03-01T12:31:33;16.53;;;14.77;;
7807;SDS011;3949;49.254;8.894;2023-03-01T12:41:42;15.53;;;13.93;;
7807;SDS011;3949;49.254;8.894;2023-03-01T12:44:20;13.47;;;12.17;;
7807;SDS011;3949;49.254;8.894;2023-03-01T12:47:05;14.93;;;13.47;;
7807;SDS011;3949;49.254;8.894;2023-03-01T12:49:43;14.03;;;12.63;;
7807;SDS011;3949;49.254;8.894;2023-03-01T12:52:13;15.93;;;14.17;;
7807;SDS011;3949;49.254;8.894;2023-03-01T12:54:40;13.07;;;11.77;;
7807;SDS011;3949;49.254;8.894;2023-03-01T13:02:38;15.70;;;14.00;;
7807;SDS011;3949;49.254;8.894;2023-03-01T13:05:17;17.10;;;15.30;;
7807;SDS011;3949;49.254;8.894;2023-03-01T13:07:50;13.60;;;12.23;;
7807;SDS011;3949;49.254;8.894;2023-03-01T13:20:15;18.13;;;15.40;;
7807;SDS011;3949;49.254;8.894;2023-03-01T13:22:42;13.70;;;12.43;;
7807;SDS011;3949;49.254;8.894;2023-03-01T13:25:13;13.20;;;11.90;;
7807;SDS011;3949;49.254;8.894;2023-03-01T13:27:40;17.80;;;14.83;;
7807;SDS011;3949;49.254;8.894;2023-03-01T13:30:11;12.43;;;11.23;;
7807;SDS011;3949;49.254;8.894;2023-03-01T13:32:52;14.47;;;13.03;;
7807;SDS011;3949;49.254;8.894;2023-03-01T13:37:44;15.77;;;14.00;;
7807;SDS011;3949;49.254;8.894;2023-03-01T13:42:46;12.83;;;11.63;;
7807;SDS011;3949;49.254;8.894;2023-03-01T13:45:17;14.67;;;13.23;;
7807;SDS011;3949;49.254;8.894;2023-03-01T13:47:45;12.87;;;11.67;;
7807;SDS011;3949;49.254;8.894;2023-03-01T13:50:21;12.90;;;11.70;;
7807;SDS011;3949;49.254;8.894;2023-03-01T13:53:02;14.83;;;13.37;;
7807;SDS011;3949;49.254;8.894;2023-03-01T13:55:36;11.87;;;10.67;;
7807;SDS011;3949;49.254;8.894;2023-03-01T13:58:05;14.97;;;13.37;;
7807;SDS011;3949;49.254;8.894;2023-03-01T14:00:40;14.10;;;12.63;;
7807;SDS011;3949;49.254;8.894;2023-03-01T14:03:16;14.97;;;13.20;;
7807;SDS011;3949;49.254;8.894;2023-03-01T14:05:50;15.77;;;14.13;;
7807;SDS011;3949;49.254;8.894;2023-03-01T14:08:23;13.33;;;12.07;;
7807;SDS011;3949;49.254;8.894;2023-03-01T14:10:53;13.07;;;11.70;;
7807;SDS011;3949;49.254;8.894;2023-03-01T14:18:54;12.63;;;11.37;;
7807;SDS011;3949;49.254;8.894;2023-03-01T14:21:23;13.53;;;12.17;;
7807;SDS011;3949;49.254;8.894;2023-03-01T14:23:50;17.57;;;14.30;;
7807;SDS011;3949;49.254;8.894;2023-03-01T14:26:20;14.10;;;11.80;;
7807;SDS011;3949;49.254;8.894;2023-03-01T14:28:46;14.73;;;13.23;;
7807;SDS011;3949;49.254;8.894;2023-03-01T14:31:30;18.00;;;14.47;;
7807;SDS011;3949;49.254;8.894;2023-03-01T14:33:57;13.90;;;12.50;;
7807;SDS011;3949;49.254;8.894;2023-03-01T14:36:27;16.27;;;14.27;;
7807;SDS011;3949;49.254;8.894;2023-03-01T14:38:53;13.20;;;11.87;;
7807;SDS011;3949;49.254;8.894;2023-03-01T14:41:22;12.87;;;11.57;;
7807;SDS011;3949;49.254;8.894;2023-03-01T14:43:52;15.10;;;13.53;;
7807;SDS011;3949;49.254;8.894;2023-03-01T14:46:22;14.07;;;12.63;;
7807;SDS011;3949;49.254;8.894;2023-03-01T14:48:50;23.53;;;19.17;;
7807;SDS011;3949;49.254;8.894;2023-03-01T14:51:16;22.47;;;17.37;;
7807;SDS011;3949;49.254;8.894;2023-03-01T14:53:42;15.23;;;12.93;;
7807;SDS011;3949;49.254;8.894;2023-03-01T14:56:12;13.60;;;12.30;;
7807;SDS011;3949;49.254;8.894;2023-03-01T14:58:38;12.53;;;11.23;;
7807;SDS011;3949;49.254;8.894;2023-03-01T15:01:04;13.00;;;11.70;;
7807;SDS011;3949;49.254;8.894;2023-03-01T15:03:32;13.20;;;11.87;;
7807;SDS011;3949;49.254;8.894;2023-03-01T15:06:02;12.93;;;11.50;;
7807;SDS011;3949;49.254;8.894;2023-03-01T15:08:29;13.77;;;11.93;;
7807;SDS011;3949;49.254;8.894;2023-03-01T15:13:26;12.07;;;10.70;;
7807;SDS011;3949;49.254;8.894;2023-03-01T15:15:53;12.93;;;11.63;;
7807;SDS011;3949;49.254;8.894;2023-03-01T15:18:26;12.73;;;11.43;;
7807;SDS011;3949;49.254;8.894;2023-03-01T15:20:53;13.50;;;11.37;;
7807;SDS011;3949;49.254;8.894;2023-03-01T15:23:26;12.57;;;11.37;;
7807;SDS011;3949;49.254;8.894;2023-03-01T15:25:53;13.50;;;12.10;;
7807;SDS011;3949;49.254;8.894;2023-03-01T15:28:21;12.60;;;11.37;;
7807;SDS011;3949;49.254;8.894;2023-03-01T15:30:52;15.67;;;13.43;;
7807;SDS011;3949;49.254;8.894;2023-03-01T15:35:52;14.03;;;11.27;;
7807;SDS011;3949;49.254;8.894;2023-03-01T15:40:51;13.87;;;11.43;;
7807;SDS011;3949;49.254;8.894;2023-03-01T15:46:02;12.60;;;11.07;;
7807;SDS011;3949;49.254;8.894;2023-03-01T15:48:29;13.67;;;10.50;;
7807;SDS011;3949;49.254;8.894;2023-03-01T15:50:58;12.33;;;11.03;;
7807;SDS011;3949;49.254;8.894;2023-03-01T15:53:26;13.13;;;11.73;;
7807;SDS011;3949;49.254;8.894;2023-03-01T15:55:53;13.87;;;11.50;;
7807;SDS011;3949;49.254;8.894;2023-03-01T15:58:20;14.80;;;12.37;;
7807;SDS011;3949;49.254;8.894;2023-03-01T16:00:46;12.40;;;10.70;;
7807;SDS011;3949;49.254;8.894;2023-03-01T16:03:14;12.63;;;11.33;;
7807;SDS011;3949;49.254;8.894;2023-03-01T16:05:46;12.50;;;11.20;;
7807;SDS011;3949;49.254;8.894;2023-03-01T16:08:12;12.10;;;10.30;;
7807;SDS011;3949;49.254;8.894;2023-03-01T16:10:38;12.40;;;11.10;;
7807;SDS011;3949;49.254;8.894;2023-03-01T16:13:05;11.73;;;10.50;;
7807;SDS011;3949;49.254;8.894;2023-03-01T16:15:32;12.30;;;11.00;;
7807;SDS011;3949;49.254;8.894;2023-03-01T16:18:03;12.30;;;11.07;;
7807;SDS011;3949;49.254;8.894;2023-03-01T16:20:30;16.20;;;11.33;;
7807;SDS011;3949;49.254;8.894;2023-03-01T16:23:00;11.57;;;10.30;;
7807;SDS011;3949;49.254;8.894;2023-03-01T16:25:26;12.20;;;10.30;;
7807;SDS011;3949;49.254;8.894;2023-03-01T16:27:52;11.80;;;10.50;;
7807;SDS011;3949;49.254;8.894;2023-03-01T16:30:20;12.20;;;10.77;;
7807;SDS011;3949;49.254;8.894;2023-03-01T16:32:47;13.13;;;11.30;;
7807;SDS011;3949;49.254;8.894;2023-03-01T16:35:14;12.17;;;10.43;;